sensor_id;sensor_type;location;lat;lon;timestamp;pressure;altitude;pressure_sealevel;temperature;humidity
58753;BME280;44525;46.052;13.610;2022-11-23T00:00:37;98793.53;;;9.04;65.51
58753;BME280;44525;46.052;13.610;2022-11-23T00:03:02;98787.00;;;9.13;63.23
58753;BME280;44525;46.052;13.610;2022-11-23T00:05:31;98794.16;;;8.92;65.40
58753;BME280;44525;46.052;13.610;2022-11-23T00:07:56;98793.53;;;8.95;67.35
58753;BME280;44525;46.052;13.610;2022-11-23T00:10:22;98792.56;;;8.91;68.31
58753;BME280;44525;46.052;13.610;2022-11-23T00:12:47;98794.78;;;8.89;66.51
58753;BME280;44525;46.052;13.610;2022-11-23T00:15:14;98795.59;;;8.89;69.51
58753;BME280;44525;46.052;13.610;2022-11-23T00:17:40;98800.03;;;8.94;68.34
58753;BME280;44525;46.052;13.610;2022-11-23T00:20:07;98802.75;;;8.94;68.55
58753;BME280;44525;46.052;13.610;2022-11-23T00:22:34;98805.28;;;8.82;67.80
58753;BME280;44525;46.052;13.610;2022-11-23T00:24:59;98796.03;;;8.83;63.32
58753;BME280;44525;46.052;13.610;2022-11-23T00:27:25;98807.06;;;8.95;65.46
58753;BME280;44525;46.052;13.610;2022-11-23T00:29:50;98796.25;;;8.95;66.03
58753;BME280;44525;46.052;13.610;2022-11-23T00:32:16;98796.06;;;9.00;64.47
58753;BME280;44525;46.052;13.610;2022-11-23T00:34:41;98806.09;;;8.91;64.39
58753;BME280;44525;46.052;13.610;2022-11-23T00:37:06;98799.41;;;8.97;64.84
58753;BME280;44525;46.052;13.610;2022-11-23T00:39:32;98805.00;;;8.92;65.55
58753;BME280;44525;46.052;13.610;2022-11-23T00:41:57;98806.44;;;8.98;65.44
58753;BME280;44525;46.052;13.610;2022-11-23T00:44:23;98809.44;;;8.88;63.77
58753;BME280;44525;46.052;13.610;2022-11-23T00:46:48;98805.63;;;8.89;63.77
58753;BME280;44525;46.052;13.610;2022-11-23T00:49:14;98811.50;;;8.91;64.82
58753;BME280;44525;46.052;13.610;2022-11-23T00:51:39;98817.56;;;8.97;64.60
58753;BME280;44525;46.052;13.610;2022-11-23T00:54:05;98823.91;;;8.83;65.77
58753;BME280;44525;46.052;13.610;2022-11-23T00:56:32;98829.34;;;8.92;66.08
58753;BME280;44525;46.052;13.610;2022-11-23T00:58:59;98827.78;;;9.00;64.83
58753;BME280;44525;46.052;13.610;2022-11-23T01:01:31;98831.47;;;9.12;66.54
58753;BME280;44525;46.052;13.610;2022-11-23T01:04:03;98830.50;;;9.08;65.79
58753;BME280;44525;46.052;13.610;2022-11-23T01:06:31;98840.97;;;8.92;66.37
58753;BME280;44525;46.052;13.610;2022-11-23T01:09:03;98842.56;;;8.93;67.87
58753;BME280;44525;46.052;13.610;2022-11-23T01:11:30;98847.19;;;8.93;66.07
58753;BME280;44525;46.052;13.610;2022-11-23T01:13:56;98849.25;;;8.87;66.05
58753;BME280;44525;46.052;13.610;2022-11-23T01:16:23;98853.19;;;8.81;66.03
58753;BME280;44525;46.052;13.610;2022-11-23T01:19:00;98866.41;;;8.83;67.47
58753;BME280;44525;46.052;13.610;2022-11-23T01:21:28;98856.22;;;8.80;66.73
58753;BME280;44525;46.052;13.610;2022-11-23T01:23:54;98872.19;;;8.90;67.06
58753;BME280;44525;46.052;13.610;2022-11-23T01:26:19;98865.16;;;8.80;69.48
58753;BME280;44525;46.052;13.610;2022-11-23T01:28:45;98866.56;;;8.77;69.85
58753;BME280;44525;46.052;13.610;2022-11-23T01:31:16;98863.97;;;8.72;69.93
58753;BME280;44525;46.052;13.610;2022-11-23T01:33:42;98877.94;;;8.57;71.11
58753;BME280;44525;46.052;13.610;2022-11-23T01:38:35;98873.16;;;8.31;74.76
58753;BME280;44525;46.052;13.610;2022-11-23T01:41:00;98875.38;;;8.29;75.87
58753;BME280;44525;46.052;13.610;2022-11-23T01:43:25;98884.47;;;8.33;76.66
58753;BME280;44525;46.052;13.610;2022-11-23T01:48:24;98886.03;;;8.25;78.90
58753;BME280;44525;46.052;13.610;2022-11-23T01:50:51;98888.88;;;8.29;77.10
58753;BME280;44525;46.052;13.610;2022-11-23T01:53:18;98897.16;;;8.24;78.18
58753;BME280;44525;46.052;13.610;2022-11-23T01:55:45;98897.63;;;8.26;79.05
58753;BME280;44525;46.052;13.610;2022-11-23T01:58:13;98904.50;;;8.32;79.66
58753;BME280;44525;46.052;13.610;2022-11-23T02:00:40;98899.03;;;8.23;79.25
58753;BME280;44525;46.052;13.610;2022-11-23T02:03:06;98914.53;;;8.32;78.88
58753;BME280;44525;46.052;13.610;2022-11-23T02:05:40;98919.25;;;8.26;78.90
58753;BME280;44525;46.052;13.610;2022-11-23T02:08:08;98919.66;;;8.11;80.90
58753;BME280;44525;46.052;13.610;2022-11-23T02:10:35;98915.97;;;7.93;84.16
58753;BME280;44525;46.052;13.610;2022-11-23T02:13:06;98923.59;;;7.90;84.39
58753;BME280;44525;46.052;13.610;2022-11-23T02:15:33;98924.16;;;8.01;85.01
58753;BME280;44525;46.052;13.610;2022-11-23T02:18:02;98925.41;;;8.18;84.56
58753;BME280;44525;46.052;13.610;2022-11-23T02:20:28;98928.22;;;8.13;84.73
58753;BME280;44525;46.052;13.610;2022-11-23T02:25:59;98941.75;;;7.90;87.13
58753;BME280;44525;46.052;13.610;2022-11-23T02:28:32;98945.94;;;7.96;86.04
58753;BME280;44525;46.052;13.610;2022-11-23T02:30:59;98947.91;;;7.68;87.93
58753;BME280;44525;46.052;13.610;2022-11-23T02:33:25;98951.63;;;7.95;87.67
58753;BME280;44525;46.052;13.610;2022-11-23T02:35:53;98955.22;;;8.04;86.91
58753;BME280;44525;46.052;13.610;2022-11-23T02:38:20;98948.00;;;7.99;87.17
58753;BME280;44525;46.052;13.610;2022-11-23T02:40:46;98957.00;;;8.08;87.09
58753;BME280;44525;46.052;13.610;2022-11-23T02:43:12;98962.53;;;8.03;87.04
58753;BME280;44525;46.052;13.610;2022-11-23T02:45:42;98968.94;;;8.07;85.66
58753;BME280;44525;46.052;13.610;2022-11-23T02:48:10;98980.28;;;7.82;87.71
58753;BME280;44525;46.052;13.610;2022-11-23T02:50:36;98974.28;;;7.85;88.02
58753;BME280;44525;46.052;13.610;2022-11-23T02:53:02;98983.16;;;7.99;87.92
58753;BME280;44525;46.052;13.610;2022-11-23T02:55:27;98979.00;;;7.79;90.23
58753;BME280;44525;46.052;13.610;2022-11-23T02:57:53;98992.94;;;7.72;90.86
58753;BME280;44525;46.052;13.610;2022-11-23T03:00:18;98986.50;;;7.82;89.47
58753;BME280;44525;46.052;13.610;2022-11-23T03:02:44;98990.41;;;7.90;89.92
58753;BME280;44525;46.052;13.610;2022-11-23T03:05:09;98989.09;;;7.87;89.84
58753;BME280;44525;46.052;13.610;2022-11-23T03:07:35;98990.41;;;7.90;89.57
58753;BME280;44525;46.052;13.610;2022-11-23T03:10:00;98997.13;;;7.79;90.49
58753;BME280;44525;46.052;13.610;2022-11-23T03:12:26;99000.34;;;7.67;91.02
58753;BME280;44525;46.052;13.610;2022-11-23T03:14:51;98992.75;;;7.55;91.79
58753;BME280;44525;46.052;13.610;2022-11-23T03:17:17;98999.13;;;7.45;92.75
58753;BME280;44525;46.052;13.610;2022-11-23T03:19:42;99008.34;;;7.58;92.87
58753;BME280;44525;46.052;13.610;2022-11-23T03:22:08;99007.25;;;7.59;92.28
58753;BME280;44525;46.052;13.610;2022-11-23T03:24:33;99011.94;;;7.67;93.11
58753;BME280;44525;46.052;13.610;2022-11-23T03:26:59;99019.56;;;7.65;92.27
58753;BME280;44525;46.052;13.610;2022-11-23T03:29:25;99024.53;;;7.86;91.25
58753;BME280;44525;46.052;13.610;2022-11-23T03:31:53;99023.38;;;7.50;93.13
58753;BME280;44525;46.052;13.610;2022-11-23T03:34:19;99026.97;;;7.60;92.50
58753;BME280;44525;46.052;13.610;2022-11-23T03:36:45;99024.38;;;7.54;93.75
58753;BME280;44525;46.052;13.610;2022-11-23T03:39:10;99037.03;;;7.26;96.49
58753;BME280;44525;46.052;13.610;2022-11-23T03:41:36;99035.94;;;7.27;95.81
58753;BME280;44525;46.052;13.610;2022-11-23T03:44:01;99032.03;;;7.33;95.35
58753;BME280;44525;46.052;13.610;2022-11-23T03:46:27;99035.66;;;7.29;95.35
58753;BME280;44525;46.052;13.610;2022-11-23T03:48:52;99035.47;;;7.53;94.56
58753;BME280;44525;46.052;13.610;2022-11-23T03:51:18;99048.56;;;7.60;94.99
58753;BME280;44525;46.052;13.610;2022-11-23T03:53:43;99045.66;;;7.28;96.43
58753;BME280;44525;46.052;13.610;2022-11-23T03:56:09;99056.16;;;7.44;95.28
58753;BME280;44525;46.052;13.610;2022-11-23T03:58:34;99051.19;;;7.37;94.85
58753;BME280;44525;46.052;13.610;2022-11-23T04:01:00;99056.06;;;7.35;94.49
58753;BME280;44525;46.052;13.610;2022-11-23T04:03:25;99059.53;;;7.22;94.93
58753;BME280;44525;46.052;13.610;2022-11-23T04:05:50;99056.72;;;7.13;96.82
58753;BME280;44525;46.052;13.610;2022-11-23T04:08:16;99063.13;;;7.17;96.93
58753;BME280;44525;46.052;13.610;2022-11-23T04:10:41;99061.88;;;7.28;96.48
58753;BME280;44525;46.052;13.610;2022-11-23T04:13:07;99071.16;;;7.22;96.35
58753;BME280;44525;46.052;13.610;2022-11-23T04:15:32;99075.38;;;7.28;96.02
58753;BME280;44525;46.052;13.610;2022-11-23T04:17:58;99073.81;;;7.08;97.26
58753;BME280;44525;46.052;13.610;2022-11-23T04:20:23;99075.97;;;7.25;96.99
58753;BME280;44525;46.052;13.610;2022-11-23T04:22:52;99081.84;;;7.27;96.81
58753;BME280;44525;46.052;13.610;2022-11-23T04:25:17;99085.66;;;7.26;96.21
58753;BME280;44525;46.052;13.610;2022-11-23T04:27:44;99084.38;;;7.24;96.16
58753;BME280;44525;46.052;13.610;2022-11-23T04:30:09;99088.66;;;7.25;96.38
58753;BME280;44525;46.052;13.610;2022-11-23T04:32:35;99093.25;;;7.24;96.12
58753;BME280;44525;46.052;13.610;2022-11-23T04:35:01;99094.06;;;6.92;98.86
58753;BME280;44525;46.052;13.610;2022-11-23T04:37:26;99102.88;;;6.97;99.13
58753;BME280;44525;46.052;13.610;2022-11-23T04:39:52;99101.56;;;6.95;99.20
58753;BME280;44525;46.052;13.610;2022-11-23T04:42:17;99112.22;;;6.86;100.00
58753;BME280;44525;46.052;13.610;2022-11-23T04:44:43;99109.06;;;6.98;99.74
58753;BME280;44525;46.052;13.610;2022-11-23T04:47:09;99113.50;;;7.08;98.49
58753;BME280;44525;46.052;13.610;2022-11-23T04:49:35;99122.53;;;7.17;98.15
58753;BME280;44525;46.052;13.610;2022-11-23T04:52:01;99130.38;;;7.32;97.11
58753;BME280;44525;46.052;13.610;2022-11-23T04:54:27;99119.03;;;7.16;97.68
58753;BME280;44525;46.052;13.610;2022-11-23T04:56:52;99130.31;;;7.05;98.20
58753;BME280;44525;46.052;13.610;2022-11-23T04:59:18;99128.84;;;6.93;98.58
58753;BME280;44525;46.052;13.610;2022-11-23T05:01:44;99129.09;;;6.59;100.00
58753;BME280;44525;46.052;13.610;2022-11-23T05:04:09;99131.94;;;6.87;100.00
58753;BME280;44525;46.052;13.610;2022-11-23T05:06:35;99129.47;;;6.71;99.76
58753;BME280;44525;46.052;13.610;2022-11-23T05:09:00;99139.38;;;6.76;99.77
58753;BME280;44525;46.052;13.610;2022-11-23T05:11:26;99142.78;;;7.00;98.68
58753;BME280;44525;46.052;13.610;2022-11-23T05:13:51;99147.53;;;6.90;98.70
58753;BME280;44525;46.052;13.610;2022-11-23T05:16:17;99146.88;;;6.60;99.74
58753;BME280;44525;46.052;13.610;2022-11-23T05:18:42;99152.06;;;6.94;98.93
58753;BME280;44525;46.052;13.610;2022-11-23T05:21:08;99148.03;;;6.92;98.86
58753;BME280;44525;46.052;13.610;2022-11-23T05:23:33;99152.81;;;6.81;99.47
58753;BME280;44525;46.052;13.610;2022-11-23T05:25:59;99163.44;;;6.91;99.73
58753;BME280;44525;46.052;13.610;2022-11-23T05:28:25;99162.31;;;6.92;99.19
58753;BME280;44525;46.052;13.610;2022-11-23T05:30:50;99175.13;;;6.67;100.00
58753;BME280;44525;46.052;13.610;2022-11-23T05:33:16;99176.25;;;6.80;100.00
58753;BME280;44525;46.052;13.610;2022-11-23T05:35:41;99177.72;;;6.92;99.31
58753;BME280;44525;46.052;13.610;2022-11-23T05:38:07;99183.06;;;6.97;98.89
58753;BME280;44525;46.052;13.610;2022-11-23T05:40:32;99186.06;;;6.95;98.67
58753;BME280;44525;46.052;13.610;2022-11-23T05:42:58;99184.44;;;6.94;98.43
58753;BME280;44525;46.052;13.610;2022-11-23T05:45:25;99178.56;;;6.73;99.85
58753;BME280;44525;46.052;13.610;2022-11-23T05:47:52;99180.66;;;6.57;100.00
58753;BME280;44525;46.052;13.610;2022-11-23T05:50:19;99187.69;;;6.34;100.00
58753;BME280;44525;46.052;13.610;2022-11-23T05:52:45;99186.34;;;6.31;100.00
58753;BME280;44525;46.052;13.610;2022-11-23T05:55:10;99182.91;;;6.26;100.00
58753;BME280;44525;46.052;13.610;2022-11-23T05:57:36;99187.47;;;6.30;100.00
58753;BME280;44525;46.052;13.610;2022-11-23T06:00:03;99184.09;;;6.39;100.00
58753;BME280;44525;46.052;13.610;2022-11-23T06:02:29;99189.16;;;6.45;100.00
58753;BME280;44525;46.052;13.610;2022-11-23T06:04:54;99184.31;;;6.23;100.00
58753;BME280;44525;46.052;13.610;2022-11-23T06:07:19;99181.72;;;6.56;100.00
58753;BME280;44525;46.052;13.610;2022-11-23T06:09:45;99185.16;;;6.43;100.00
58753;BME280;44525;46.052;13.610;2022-11-23T06:12:11;99178.22;;;6.12;100.00
58753;BME280;44525;46.052;13.610;2022-11-23T06:14:36;99178.91;;;6.23;100.00
58753;BME280;44525;46.052;13.610;2022-11-23T06:17:02;99188.78;;;6.09;100.00
58753;BME280;44525;46.052;13.610;2022-11-23T06:19:27;99195.84;;;6.05;100.00
58753;BME280;44525;46.052;13.610;2022-11-23T06:21:57;99195.22;;;6.13;100.00
58753;BME280;44525;46.052;13.610;2022-11-23T06:24:23;99206.72;;;6.43;100.00
58753;BME280;44525;46.052;13.610;2022-11-23T06:26:50;99201.94;;;6.35;100.00
58753;BME280;44525;46.052;13.610;2022-11-23T06:29:17;99206.84;;;6.32;100.00
58753;BME280;44525;46.052;13.610;2022-11-23T06:31:42;99208.00;;;6.26;100.00
58753;BME280;44525;46.052;13.610;2022-11-23T06:34:08;99205.63;;;6.44;100.00
58753;BME280;44525;46.052;13.610;2022-11-23T06:36:33;99214.53;;;6.20;100.00
58753;BME280;44525;46.052;13.610;2022-11-23T06:38:59;99222.66;;;6.15;100.00
58753;BME280;44525;46.052;13.610;2022-11-23T06:41:24;99222.34;;;6.22;100.00
58753;BME280;44525;46.052;13.610;2022-11-23T06:43:50;99229.00;;;6.29;100.00
58753;BME280;44525;46.052;13.610;2022-11-23T06:46:16;99220.25;;;6.38;100.00
58753;BME280;44525;46.052;13.610;2022-11-23T06:48:44;99224.44;;;6.49;100.00
58753;BME280;44525;46.052;13.610;2022-11-23T06:51:11;99234.91;;;6.75;100.00
58753;BME280;44525;46.052;13.610;2022-11-23T06:53:36;99236.78;;;6.74;100.00
58753;BME280;44525;46.052;13.610;2022-11-23T06:56:02;99236.31;;;6.91;99.94
58753;BME280;44525;46.052;13.610;2022-11-23T06:58:28;99235.66;;;6.99;98.23
58753;BME280;44525;46.052;13.610;2022-11-23T07:00:59;99244.72;;;7.09;97.69
58753;BME280;44525;46.052;13.610;2022-11-23T07:03:24;99245.13;;;7.16;97.38
58753;BME280;44525;46.052;13.610;2022-11-23T07:05:50;99262.94;;;6.98;98.21
58753;BME280;44525;46.052;13.610;2022-11-23T07:08:15;99264.97;;;6.87;99.66
58753;BME280;44525;46.052;13.610;2022-11-23T07:10:41;99263.34;;;6.86;99.62
58753;BME280;44525;46.052;13.610;2022-11-23T07:13:08;99271.47;;;6.86;100.00
58753;BME280;44525;46.052;13.610;2022-11-23T07:15:35;99262.03;;;6.64;100.00
58753;BME280;44525;46.052;13.610;2022-11-23T07:18:01;99264.06;;;6.73;100.00
58753;BME280;44525;46.052;13.610;2022-11-23T07:20:26;99268.53;;;6.82;100.00
58753;BME280;44525;46.052;13.610;2022-11-23T07:23:02;99279.66;;;7.00;100.00
58753;BME280;44525;46.052;13.610;2022-11-23T07:25:29;99276.22;;;7.13;100.00
58753;BME280;44525;46.052;13.610;2022-11-23T07:27:56;99283.66;;;7.02;100.00
58753;BME280;44525;46.052;13.610;2022-11-23T07:30:22;99291.69;;;7.08;100.00
58753;BME280;44525;46.052;13.610;2022-11-23T07:32:47;99287.31;;;7.12;100.00
58753;BME280;44525;46.052;13.610;2022-11-23T07:35:13;99289.44;;;7.15;98.47
58753;BME280;44525;46.052;13.610;2022-11-23T07:37:38;99289.00;;;7.27;98.07
58753;BME280;44525;46.052;13.610;2022-11-23T07:40:05;99288.91;;;7.13;99.17
58753;BME280;44525;46.052;13.610;2022-11-23T07:42:31;99292.78;;;7.26;98.30
58753;BME280;44525;46.052;13.610;2022-11-23T07:44:56;99298.03;;;7.36;96.89
58753;BME280;44525;46.052;13.610;2022-11-23T07:47:22;99290.22;;;7.34;97.33
58753;BME280;44525;46.052;13.610;2022-11-23T07:49:47;99292.00;;;7.25;96.66
58753;BME280;44525;46.052;13.610;2022-11-23T07:52:13;99295.41;;;7.12;97.77
58753;BME280;44525;46.052;13.610;2022-11-23T07:54:38;99302.94;;;7.15;98.11
58753;BME280;44525;46.052;13.610;2022-11-23T07:57:03;99308.13;;;7.30;97.16
58753;BME280;44525;46.052;13.610;2022-11-23T07:59:29;99314.69;;;7.43;97.26
58753;BME280;44525;46.052;13.610;2022-11-23T08:01:54;99317.38;;;7.43;97.68
58753;BME280;44525;46.052;13.610;2022-11-23T08:04:20;99323.28;;;7.64;96.65
58753;BME280;44525;46.052;13.610;2022-11-23T08:06:45;99324.59;;;7.67;96.61
58753;BME280;44525;46.052;13.610;2022-11-23T08:09:11;99326.72;;;7.70;95.42
58753;BME280;44525;46.052;13.610;2022-11-23T08:11:36;99328.03;;;7.72;95.07
58753;BME280;44525;46.052;13.610;2022-11-23T08:14:02;99327.66;;;7.79;94.13
58753;BME280;44525;46.052;13.610;2022-11-23T08:16:27;99332.09;;;7.89;93.04
58753;BME280;44525;46.052;13.610;2022-11-23T08:18:52;99343.28;;;7.82;93.66
58753;BME280;44525;46.052;13.610;2022-11-23T08:21:18;99344.75;;;7.75;94.78
58753;BME280;44525;46.052;13.610;2022-11-23T08:23:43;99343.84;;;7.98;93.88
58753;BME280;44525;46.052;13.610;2022-11-23T08:26:09;99346.09;;;7.91;92.85
58753;BME280;44525;46.052;13.610;2022-11-23T08:28:34;99348.44;;;7.98;93.48
58753;BME280;44525;46.052;13.610;2022-11-23T08:31:07;99351.94;;;7.98;92.04
58753;BME280;44525;46.052;13.610;2022-11-23T08:33:32;99357.59;;;8.16;91.51
58753;BME280;44525;46.052;13.610;2022-11-23T08:36:03;99340.13;;;8.27;91.16
58753;BME280;44525;46.052;13.610;2022-11-23T08:38:29;99360.00;;;8.17;90.93
58753;BME280;44525;46.052;13.610;2022-11-23T08:41:02;99362.66;;;8.36;89.80
58753;BME280;44525;46.052;13.610;2022-11-23T08:43:28;99362.78;;;8.31;89.86
58753;BME280;44525;46.052;13.610;2022-11-23T08:45:55;99368.50;;;8.43;89.59
58753;BME280;44525;46.052;13.610;2022-11-23T08:48:21;99364.03;;;8.53;88.14
58753;BME280;44525;46.052;13.610;2022-11-23T08:50:46;99384.41;;;8.64;87.90
58753;BME280;44525;46.052;13.610;2022-11-23T08:53:11;99371.06;;;8.68;86.19
58753;BME280;44525;46.052;13.610;2022-11-23T08:55:37;99368.97;;;8.78;85.44
58753;BME280;44525;46.052;13.610;2022-11-23T08:58:02;99378.00;;;8.88;84.56
58753;BME280;44525;46.052;13.610;2022-11-23T09:00:28;99370.66;;;8.74;84.27
58753;BME280;44525;46.052;13.610;2022-11-23T09:02:54;99385.91;;;8.98;86.94
58753;BME280;44525;46.052;13.610;2022-11-23T09:05:21;99384.91;;;9.22;83.23
58753;BME280;44525;46.052;13.610;2022-11-23T09:07:47;99387.81;;;9.11;83.27
58753;BME280;44525;46.052;13.610;2022-11-23T09:10:12;99398.22;;;9.18;83.64
58753;BME280;44525;46.052;13.610;2022-11-23T09:12:38;99395.44;;;9.09;83.33
58753;BME280;44525;46.052;13.610;2022-11-23T09:15:03;99396.03;;;8.92;84.52
58753;BME280;44525;46.052;13.610;2022-11-23T09:17:30;99401.06;;;8.71;83.96
58753;BME280;44525;46.052;13.610;2022-11-23T09:19:56;99405.25;;;8.91;85.21
58753;BME280;44525;46.052;13.610;2022-11-23T09:22:22;99403.06;;;9.07;83.93
58753;BME280;44525;46.052;13.610;2022-11-23T09:24:47;99409.69;;;9.15;83.10
58753;BME280;44525;46.052;13.610;2022-11-23T09:27:12;99419.22;;;8.99;85.24
58753;BME280;44525;46.052;13.610;2022-11-23T09:29:38;99412.78;;;8.67;84.46
58753;BME280;44525;46.052;13.610;2022-11-23T09:32:03;99421.81;;;8.76;85.86
58753;BME280;44525;46.052;13.610;2022-11-23T09:34:29;99416.81;;;8.97;84.35
58753;BME280;44525;46.052;13.610;2022-11-23T09:36:58;99420.81;;;9.13;83.16
58753;BME280;44525;46.052;13.610;2022-11-23T09:39:23;99415.69;;;9.12;83.37
58753;BME280;44525;46.052;13.610;2022-11-23T09:52:34;99434.75;;;9.21;83.38
58753;BME280;44525;46.052;13.610;2022-11-23T09:55:49;99438.38;;;9.02;82.61
58753;BME280;44525;46.052;13.610;2022-11-23T09:58:00;99433.25;;;9.15;82.99
58753;BME280;44525;46.052;13.610;2022-11-23T10:00:31;99445.59;;;9.21;83.13
58753;BME280;44525;46.052;13.610;2022-11-23T10:02:59;99444.91;;;9.01;81.90
58753;BME280;44525;46.052;13.610;2022-11-23T10:05:26;99442.00;;;9.11;82.23
58753;BME280;44525;46.052;13.610;2022-11-23T10:08:08;99442.88;;;9.21;80.73
58753;BME280;44525;46.052;13.610;2022-11-23T10:10:42;99443.91;;;9.25;81.23
58753;BME280;44525;46.052;13.610;2022-11-23T10:13:34;99440.56;;;9.28;80.03
58753;BME280;44525;46.052;13.610;2022-11-23T10:16:24;99452.00;;;9.39;80.46
58753;BME280;44525;46.052;13.610;2022-11-23T10:21:58;99449.38;;;9.47;79.86
58753;BME280;44525;46.052;13.610;2022-11-23T10:24:32;99449.16;;;9.72;79.02
58753;BME280;44525;46.052;13.610;2022-11-23T10:26:59;99448.66;;;9.70;79.24
58753;BME280;44525;46.052;13.610;2022-11-23T10:31:53;99451.56;;;9.73;80.32
58753;BME280;44525;46.052;13.610;2022-11-23T10:34:55;99461.25;;;9.65;81.54
58753;BME280;44525;46.052;13.610;2022-11-23T10:37:22;99451.41;;;9.56;79.75
58753;BME280;44525;46.052;13.610;2022-11-23T10:39:48;99455.81;;;9.52;80.11
58753;BME280;44525;46.052;13.610;2022-11-23T10:42:20;99459.31;;;9.66;79.90
58753;BME280;44525;46.052;13.610;2022-11-23T10:44:48;99450.75;;;9.73;80.49
58753;BME280;44525;46.052;13.610;2022-11-23T10:47:40;99451.97;;;9.80;80.44
58753;BME280;44525;46.052;13.610;2022-11-23T10:50:27;99448.63;;;9.83;79.90
58753;BME280;44525;46.052;13.610;2022-11-23T10:53:13;99454.28;;;9.73;78.54
58753;BME280;44525;46.052;13.610;2022-11-23T10:55:52;99454.19;;;9.64;77.89
58753;BME280;44525;46.052;13.610;2022-11-23T10:58:42;99462.28;;;9.78;77.41
58753;BME280;44525;46.052;13.610;2022-11-23T11:01:18;99447.50;;;9.84;76.84
58753;BME280;44525;46.052;13.610;2022-11-23T11:03:47;99454.63;;;9.94;77.72
58753;BME280;44525;46.052;13.610;2022-11-23T11:06:27;99463.19;;;9.88;77.12
58753;BME280;44525;46.052;13.610;2022-11-23T11:09:04;99465.00;;;9.92;76.81
58753;BME280;44525;46.052;13.610;2022-11-23T11:11:45;99461.59;;;9.87;76.55
58753;BME280;44525;46.052;13.610;2022-11-23T11:14:20;99461.59;;;9.87;77.95
58753;BME280;44525;46.052;13.610;2022-11-23T11:16:54;99451.53;;;9.87;77.41
58753;BME280;44525;46.052;13.610;2022-11-23T11:21:46;99463.84;;;9.57;77.31
58753;BME280;44525;46.052;13.610;2022-11-23T11:24:19;99463.91;;;9.79;76.09
58753;BME280;44525;46.052;13.610;2022-11-23T11:26:56;99467.19;;;9.90;76.10
58753;BME280;44525;46.052;13.610;2022-11-23T11:29:31;99463.31;;;10.05;76.40
58753;BME280;44525;46.052;13.610;2022-11-23T11:32:06;99467.84;;;10.10;77.01
58753;BME280;44525;46.052;13.610;2022-11-23T11:37:15;99464.44;;;10.04;76.55
58753;BME280;44525;46.052;13.610;2022-11-23T11:39:49;99466.72;;;10.11;76.11
58753;BME280;44525;46.052;13.610;2022-11-23T11:42:33;99468.13;;;10.08;77.52
58753;BME280;44525;46.052;13.610;2022-11-23T11:45:02;99461.91;;;10.08;77.20
58753;BME280;44525;46.052;13.610;2022-11-23T11:47:35;99458.19;;;10.17;76.64
58753;BME280;44525;46.052;13.610;2022-11-23T11:50:05;99464.59;;;10.22;75.94
58753;BME280;44525;46.052;13.610;2022-11-23T11:52:41;99457.88;;;10.19;76.72
58753;BME280;44525;46.052;13.610;2022-11-23T11:55:16;99460.97;;;10.26;75.11
58753;BME280;44525;46.052;13.610;2022-11-23T11:57:48;99456.81;;;10.29;77.17
58753;BME280;44525;46.052;13.610;2022-11-23T12:00:17;99459.03;;;10.27;77.14
58753;BME280;44525;46.052;13.610;2022-11-23T12:03:09;99459.59;;;10.15;80.00
58753;BME280;44525;46.052;13.610;2022-11-23T12:08:39;99457.94;;;10.28;75.86
58753;BME280;44525;46.052;13.610;2022-11-23T12:11:10;99455.00;;;10.38;77.71
58753;BME280;44525;46.052;13.610;2022-11-23T12:13:39;99452.41;;;10.56;77.44
58753;BME280;44525;46.052;13.610;2022-11-23T12:16:26;99453.50;;;10.55;77.77
58753;BME280;44525;46.052;13.610;2022-11-23T12:19:21;99448.19;;;10.49;78.07
58753;BME280;44525;46.052;13.610;2022-11-23T12:22:06;99449.06;;;10.59;76.98
58753;BME280;44525;46.052;13.610;2022-11-23T12:25:10;99448.56;;;10.79;74.98
58753;BME280;44525;46.052;13.610;2022-11-23T12:31:11;99439.81;;;10.91;72.77
58753;BME280;44525;46.052;13.610;2022-11-23T12:34:03;99438.91;;;10.73;74.24
58753;BME280;44525;46.052;13.610;2022-11-23T12:36:58;99441.31;;;10.75;73.87
58753;BME280;44525;46.052;13.610;2022-11-23T12:42:32;99439.16;;;10.85;72.54
58753;BME280;44525;46.052;13.610;2022-11-23T12:50:29;99437.81;;;10.74;73.55
58753;BME280;44525;46.052;13.610;2022-11-23T12:58:51;99433.03;;;10.80;72.01
58753;BME280;44525;46.052;13.610;2022-11-23T13:01:22;99439.25;;;10.80;70.23
58753;BME280;44525;46.052;13.610;2022-11-23T13:07:12;99437.81;;;10.74;69.75
58753;BME280;44525;46.052;13.610;2022-11-23T13:23:37;99432.09;;;10.84;71.47
58753;BME280;44525;46.052;13.610;2022-11-23T13:28:46;99430.19;;;10.85;68.71
58753;BME280;44525;46.052;13.610;2022-11-23T13:33:46;99424.69;;;10.76;70.31
58753;BME280;44525;46.052;13.610;2022-11-23T13:36:36;99428.88;;;10.74;68.78
58753;BME280;44525;46.052;13.610;2022-11-23T13:40:03;99419.78;;;10.78;68.42
58753;BME280;44525;46.052;13.610;2022-11-23T13:42:10;99429.66;;;10.74;72.10
58753;BME280;44525;46.052;13.610;2022-11-23T13:44:36;99431.66;;;10.60;73.04
58753;BME280;44525;46.052;13.610;2022-11-23T13:47:25;99424.41;;;10.78;72.59
58753;BME280;44525;46.052;13.610;2022-11-23T13:49:51;99428.28;;;10.85;70.64
58753;BME280;44525;46.052;13.610;2022-11-23T13:52:31;99430.13;;;10.76;70.84
58753;BME280;44525;46.052;13.610;2022-11-23T13:57:39;99433.34;;;10.78;72.66
58753;BME280;44525;46.052;13.610;2022-11-23T14:07:33;99436.94;;;10.96;65.60
58753;BME280;44525;46.052;13.610;2022-11-23T14:09:35;99435.53;;;10.99;66.91
58753;BME280;44525;46.052;13.610;2022-11-23T14:15:07;99440.50;;;11.05;67.09
58753;BME280;44525;46.052;13.610;2022-11-23T14:32:31;99459.06;;;10.72;69.95
58753;BME280;44525;46.052;13.610;2022-11-23T14:35:11;99458.69;;;10.65;70.62
58753;BME280;44525;46.052;13.610;2022-11-23T14:42:59;99458.72;;;10.06;75.65
58753;BME280;44525;46.052;13.610;2022-11-23T14:45:34;99459.34;;;9.89;77.12
58753;BME280;44525;46.052;13.610;2022-11-23T14:48:19;99475.16;;;9.73;79.07
58753;BME280;44525;46.052;13.610;2022-11-23T14:50:46;99470.66;;;9.40;80.96